createdAt,value
2018-08-17T00:00:18.889Z,25.52
2018-08-17T00:01:23.071Z,25.43
2018-08-17T00:02:32.671Z,23.22
2018-08-17T00:03:42.510Z,24.50
2018-08-17T00:04:46.628Z,23.02
2018-08-17T00:05:50.491Z,24.47
2018-08-17T00:06:54.389Z,28.98
2018-08-17T00:07:58.286Z,25.97
2018-08-17T00:09:02.452Z,24.18
2018-08-17T00:10:06.658Z,22.67
2018-08-17T00:11:11.002Z,22.50
2018-08-17T00:12:15.270Z,25.02
2018-08-17T00:13:19.477Z,27.62
2018-08-17T00:14:23.885Z,28.87
2018-08-17T00:15:28.053Z,26.00
2018-08-17T00:16:32.244Z,26.87
2018-08-17T00:17:36.420Z,25.97
2018-08-17T00:18:40.734Z,29.00
2018-08-17T00:19:45.028Z,28.30
2018-08-17T00:20:49.202Z,25.60
2018-08-17T00:21:53.375Z,29.27
2018-08-17T00:22:57.521Z,24.02
2018-08-17T00:24:01.958Z,31.62
2018-08-17T00:25:06.258Z,25.02
2018-08-17T00:26:10.451Z,24.15
2018-08-17T00:27:14.619Z,23.40
2018-08-17T00:28:18.775Z,25.40
2018-08-17T00:29:22.938Z,30.20
2018-08-17T00:30:27.095Z,28.77
2018-08-17T00:31:31.270Z,26.02
2018-08-17T00:32:35.476Z,25.55
2018-08-17T00:33:39.620Z,26.55
2018-08-17T00:34:43.804Z,26.90
2018-08-17T00:35:47.988Z,25.12
2018-08-17T00:36:52.363Z,28.57
2018-08-17T00:37:56.523Z,24.20
2018-08-17T00:39:00.707Z,21.75
2018-08-17T00:40:05.882Z,24.07
2018-08-17T00:41:10.071Z,27.85
2018-08-17T00:42:14.345Z,25.32
2018-08-17T00:43:18.838Z,23.87
2018-08-17T00:44:23.032Z,26.42
2018-08-17T00:45:27.235Z,31.42
2018-08-17T00:46:31.426Z,25.92
2018-08-17T00:47:35.749Z,25.57
2018-08-17T00:48:39.941Z,25.10
2018-08-17T00:49:44.132Z,25.65
2018-08-17T00:50:48.364Z,24.90
2018-08-17T00:51:52.603Z,25.75
2018-08-17T00:52:56.782Z,23.60
2018-08-17T00:54:01.013Z,23.12
2018-08-17T00:55:05.531Z,25.75
2018-08-17T00:56:09.781Z,23.90
2018-08-17T00:57:14.175Z,23.45
2018-08-17T00:58:18.447Z,26.52
2018-08-17T00:59:22.610Z,23.30
2018-08-17T01:00:26.802Z,29.80
2018-08-17T01:01:31.002Z,25.43
2018-08-17T01:02:35.229Z,23.65
2018-08-17T01:03:39.694Z,23.98
2018-08-17T01:04:43.852Z,23.85
2018-08-17T01:05:48.064Z,24.77
2018-08-17T01:06:52.376Z,28.50
2018-08-17T01:07:56.600Z,25.55
2018-08-17T01:09:00.837Z,24.25
2018-08-17T01:10:05.307Z,25.32
2018-08-17T01:11:09.492Z,26.37
2018-08-17T01:12:13.812Z,30.52
2018-08-17T01:13:17.996Z,24.80
2018-08-17T01:14:22.295Z,25.43
2018-08-17T01:15:26.626Z,25.08
2018-08-17T01:16:30.781Z,25.32
2018-08-17T01:17:35.002Z,26.17
2018-08-17T01:18:39.167Z,27.73
2018-08-17T01:19:43.414Z,28.80
2018-08-17T01:20:47.585Z,23.02
2018-08-17T01:21:51.747Z,26.68
2018-08-17T01:22:56.071Z,24.40
2018-08-17T01:24:00.226Z,26.12
2018-08-17T01:25:04.967Z,27.93
2018-08-17T01:26:09.162Z,25.97
2018-08-17T01:27:13.363Z,27.45
2018-08-17T01:28:17.550Z,27.60
2018-08-17T01:29:21.923Z,31.07
2018-08-17T01:30:26.091Z,27.55
2018-08-17T01:31:30.266Z,28.50
2018-08-17T01:32:34.438Z,34.85
2018-08-17T01:33:38.650Z,31.45
2018-08-17T01:34:42.798Z,29.97
2018-08-17T01:35:46.971Z,30.37
2018-08-17T01:36:51.297Z,30.43
2018-08-17T01:37:55.483Z,33.25
2018-08-17T01:38:59.683Z,35.73
2018-08-17T01:40:03.914Z,36.20
2018-08-17T01:41:08.107Z,33.85
2018-08-17T01:42:12.289Z,38.70
2018-08-17T01:43:16.463Z,34.30
2018-08-17T01:44:20.905Z,40.70
2018-08-17T01:45:25.072Z,36.05
2018-08-17T01:46:29.235Z,39.10
2018-08-17T01:47:33.728Z,39.25
2018-08-17T01:48:37.882Z,34.53
2018-08-17T01:49:42.136Z,37.40
2018-08-17T01:50:46.447Z,37.60
2018-08-17T01:51:50.604Z,44.35
2018-08-17T01:52:54.787Z,38.67
2018-08-17T01:53:58.946Z,39.90
2018-08-17T01:55:03.264Z,39.27
2018-08-17T01:56:07.482Z,32.80
2018-08-17T01:57:11.880Z,37.20
2018-08-17T01:58:16.074Z,34.50
2018-08-17T01:59:20.291Z,38.08
2018-08-17T02:00:24.508Z,35.65
2018-08-17T02:01:28.698Z,34.33
2018-08-17T02:02:32.871Z,36.90
2018-08-17T02:03:37.063Z,37.83
2018-08-17T02:04:41.247Z,33.53
2018-08-17T02:05:45.484Z,32.73
2018-08-17T02:06:49.659Z,36.55
2018-08-17T02:07:54.087Z,36.23
2018-08-17T02:08:58.271Z,35.52
2018-08-17T02:10:02.475Z,34.58
2018-08-17T02:11:06.854Z,33.73
2018-08-17T02:12:11.023Z,35.43
2018-08-17T02:13:19.482Z,32.63
2018-08-17T02:14:23.687Z,33.75
2018-08-17T02:15:27.974Z,33.63
2018-08-17T02:16:32.147Z,35.03
2018-08-17T02:17:36.408Z,34.13
2018-08-17T02:18:40.694Z,35.40
2018-08-17T02:19:44.834Z,37.98
2018-08-17T02:20:49.009Z,31.15
2018-08-17T02:21:53.205Z,34.65
2018-08-17T02:22:57.570Z,28.67
2018-08-17T02:24:01.724Z,31.75
2018-08-17T02:25:05.951Z,28.40
2018-08-17T02:26:10.116Z,30.20
2018-08-17T02:27:14.334Z,30.20
2018-08-17T02:28:18.487Z,31.07
2018-08-17T02:29:22.703Z,33.33
2018-08-17T02:30:26.861Z,29.52
2018-08-17T02:31:31.085Z,32.60
2018-08-17T02:32:35.278Z,24.90
2018-08-17T02:33:39.604Z,26.93
2018-08-17T02:34:43.872Z,25.40
2018-08-17T02:35:50.335Z,25.15
2018-08-17T02:36:54.504Z,25.95
2018-08-17T02:37:58.742Z,23.98
2018-08-17T02:39:03.150Z,24.87
2018-08-17T02:40:07.371Z,23.05
2018-08-17T02:41:11.766Z,24.35
2018-08-17T02:42:19.182Z,22.67
2018-08-17T02:43:23.380Z,21.93
2018-08-17T02:44:28.043Z,13.38
2018-08-17T02:45:32.219Z,17.42
2018-08-17T02:46:36.440Z,14.43
2018-08-17T02:47:40.603Z,17.55
2018-08-17T02:48:44.799Z,15.78
2018-08-17T02:49:48.989Z,15.75
2018-08-17T02:50:53.463Z,15.72
2018-08-17T02:51:57.707Z,13.72
2018-08-17T02:53:01.887Z,14.60
2018-08-17T02:54:07.019Z,15.83
2018-08-17T02:55:11.195Z,13.58
2018-08-17T02:56:15.366Z,16.45
2018-08-17T02:57:19.552Z,14.13
2018-08-17T02:58:23.691Z,14.10
2018-08-17T02:59:27.890Z,11.95
2018-08-17T03:00:32.080Z,12.75
2018-08-17T03:01:36.280Z,14.80
2018-08-17T03:02:40.543Z,11.93
2018-08-17T03:03:44.721Z,12.30
2018-08-17T03:04:49.023Z,14.78
2018-08-17T03:05:53.195Z,13.00
2018-08-17T03:06:57.388Z,13.13
2018-08-17T03:08:01.613Z,13.72
2018-08-17T03:09:07.831Z,12.93
2018-08-17T03:10:12.027Z,10.50
2018-08-17T03:11:16.184Z,16.02
2018-08-17T03:12:20.455Z,13.03
2018-08-17T03:13:24.588Z,16.85
2018-08-17T03:14:28.792Z,12.50
2018-08-17T03:15:33.159Z,14.55
2018-08-17T03:16:37.353Z,15.18
2018-08-17T03:17:41.526Z,20.55
2018-08-17T03:18:45.683Z,16.87
2018-08-17T03:19:49.978Z,17.92
2018-08-17T03:20:54.183Z,13.25
2018-08-17T03:21:58.382Z,15.43
2018-08-17T03:23:02.551Z,14.58
2018-08-17T03:24:06.936Z,18.25
2018-08-17T03:25:11.106Z,13.03
2018-08-17T03:26:16.091Z,15.05
2018-08-17T03:27:20.568Z,14.80
2018-08-17T03:28:24.738Z,14.45
2018-08-17T03:29:28.971Z,14.15
2018-08-17T03:30:33.128Z,16.12
2018-08-17T03:31:37.337Z,11.63
2018-08-17T03:32:41.601Z,14.15
2018-08-17T03:33:45.782Z,18.92
2018-08-17T03:34:50.031Z,16.52
2018-08-17T03:35:54.522Z,15.30
2018-08-17T03:36:58.883Z,18.52
2018-08-17T03:38:03.192Z,14.93
2018-08-17T03:39:08.783Z,25.05
2018-08-17T03:40:12.934Z,20.12
2018-08-17T03:41:17.186Z,16.05
2018-08-17T03:42:21.414Z,15.10
2018-08-17T03:43:25.699Z,18.77
2018-08-17T03:44:30.021Z,18.12
2018-08-17T03:45:34.214Z,15.08
2018-08-17T03:46:38.530Z,19.98
2018-08-17T03:47:42.703Z,17.98
2018-08-17T03:48:46.855Z,11.35
2018-08-17T03:49:51.031Z,14.28
2018-08-17T03:50:56.107Z,13.83
2018-08-17T03:52:00.505Z,16.35
2018-08-17T03:53:04.679Z,13.60
2018-08-17T03:54:08.875Z,15.35
2018-08-17T03:55:13.628Z,12.28
2018-08-17T03:56:17.809Z,15.55
2018-08-17T03:57:21.971Z,15.40
2018-08-17T03:58:26.274Z,14.63
2018-08-17T03:59:31.669Z,16.87
2018-08-17T04:00:37.139Z,13.62
2018-08-17T04:01:41.298Z,14.18
2018-08-17T04:02:45.492Z,11.03
2018-08-17T04:03:49.668Z,16.23
2018-08-17T04:04:53.955Z,14.73
2018-08-17T04:05:58.144Z,12.35
2018-08-17T04:07:02.412Z,13.03
2018-08-17T04:08:06.730Z,12.90
2018-08-17T04:09:11.832Z,16.75
2018-08-17T04:10:16.011Z,17.00
2018-08-17T04:11:20.200Z,18.50
2018-08-17T04:12:24.358Z,19.40
2018-08-17T04:13:28.590Z,25.43
2018-08-17T04:14:32.991Z,25.92
2018-08-17T04:15:37.523Z,20.55
2018-08-17T04:16:41.692Z,22.77
2018-08-17T04:17:45.828Z,16.17
2018-08-17T04:18:54.576Z,19.25
2018-08-17T04:19:58.813Z,15.55
2018-08-17T04:21:02.979Z,15.55
2018-08-17T04:22:07.305Z,14.87
2018-08-17T04:23:11.444Z,17.00
2018-08-17T04:24:15.590Z,14.78
2018-08-17T04:25:19.864Z,15.88
2018-08-17T04:26:24.146Z,15.88
2018-08-17T04:27:28.387Z,15.80
2018-08-17T04:28:32.563Z,13.28
2018-08-17T04:29:36.758Z,15.30
2018-08-17T04:30:40.969Z,13.68
2018-08-17T04:31:45.125Z,11.53
2018-08-17T04:32:49.375Z,13.78
2018-08-17T04:33:53.595Z,10.70
2018-08-17T04:34:57.804Z,10.65
2018-08-17T04:36:01.989Z,12.30
2018-08-17T04:37:06.156Z,13.72
2018-08-17T04:38:10.310Z,12.55
2018-08-17T04:39:14.472Z,9.50
2018-08-17T04:40:18.679Z,12.95
2018-08-17T04:41:22.864Z,15.35
2018-08-17T04:42:27.591Z,11.90
2018-08-17T04:43:31.903Z,12.82
2018-08-17T04:44:36.361Z,14.50
2018-08-17T04:45:40.516Z,14.78
2018-08-17T04:46:44.896Z,10.48
2018-08-17T04:47:49.086Z,11.65
2018-08-17T04:48:53.630Z,9.30
2018-08-17T04:49:57.775Z,7.65
2018-08-17T04:51:01.938Z,9.30
2018-08-17T04:52:06.194Z,12.68
2018-08-17T04:53:10.339Z,9.08
2018-08-17T04:54:14.509Z,11.40
2018-08-17T04:55:18.772Z,8.10
2018-08-17T04:56:23.117Z,10.13
2018-08-17T04:57:27.425Z,19.60
2018-08-17T04:58:31.849Z,6.45
2018-08-17T04:59:36.104Z,8.45
2018-08-17T05:00:40.275Z,10.85
2018-08-17T05:01:44.440Z,6.87
2018-08-17T05:02:48.606Z,8.00
2018-08-17T05:03:52.878Z,15.72
2018-08-17T05:04:57.033Z,10.30
2018-08-17T05:06:01.180Z,13.20
2018-08-17T05:07:05.350Z,8.55
2018-08-17T05:08:09.549Z,9.48
2018-08-17T05:09:13.716Z,19.67
2018-08-17T05:10:17.846Z,18.23
2018-08-17T05:11:22.197Z,18.00
2018-08-17T05:12:26.534Z,11.90
2018-08-17T05:13:30.810Z,23.35
2018-08-17T05:14:35.116Z,16.00
2018-08-17T05:15:39.243Z,12.23
2018-08-17T05:16:43.497Z,13.05
2018-08-17T05:17:47.648Z,20.68
2018-08-17T05:18:51.990Z,12.33
2018-08-17T05:19:56.224Z,17.85
2018-08-17T05:21:00.365Z,39.40
2018-08-17T05:22:04.723Z,19.42
2018-08-17T05:23:08.876Z,17.80
2018-08-17T05:24:13.767Z,14.85
2018-08-17T05:25:17.918Z,17.80
2018-08-17T05:26:22.102Z,21.77
2018-08-17T05:27:26.239Z,18.42
2018-08-17T05:28:30.375Z,17.62
2018-08-17T05:29:34.567Z,15.58
2018-08-17T05:30:38.718Z,24.43
2018-08-17T05:31:43.327Z,16.95
2018-08-17T05:32:47.486Z,16.70
2018-08-17T05:33:52.041Z,47.23
2018-08-17T05:34:56.196Z,24.85
2018-08-17T05:36:00.393Z,22.02
2018-08-17T05:37:05.077Z,21.77
2018-08-17T05:38:09.268Z,27.22
2018-08-17T05:39:13.399Z,21.62
2018-08-17T05:40:17.579Z,18.15
2018-08-17T05:41:21.729Z,30.30
2018-08-17T05:42:25.859Z,28.57
2018-08-17T05:43:30.007Z,15.85
2018-08-17T05:44:34.158Z,34.30
2018-08-17T05:45:38.660Z,24.95
2018-08-17T05:46:42.911Z,22.48
2018-08-17T05:47:47.113Z,21.25
2018-08-17T05:48:51.351Z,16.32
2018-08-17T05:49:55.536Z,20.37
2018-08-17T05:50:59.731Z,18.87
2018-08-17T05:52:04.037Z,23.65
2018-08-17T05:53:08.261Z,19.02
2018-08-17T05:54:12.467Z,22.65
2018-08-17T05:55:16.671Z,20.08
2018-08-17T05:56:20.909Z,18.27
2018-08-17T05:57:25.108Z,27.80
2018-08-17T05:58:29.283Z,40.20
2018-08-17T05:59:33.654Z,27.07
2018-08-17T06:00:37.919Z,24.30
2018-08-17T06:01:42.114Z,15.65
2018-08-17T06:02:46.552Z,15.25
2018-08-17T06:03:50.703Z,16.95
2018-08-17T06:04:55.060Z,16.65
2018-08-17T06:05:59.422Z,22.87
2018-08-17T06:07:03.640Z,19.35
2018-08-17T06:08:07.973Z,19.17
2018-08-17T06:09:12.198Z,19.25
2018-08-17T06:10:16.543Z,21.12
2018-08-17T06:11:20.949Z,18.52
2018-08-17T06:12:24.948Z,22.32
2018-08-17T06:13:29.192Z,19.67
2018-08-17T06:14:33.362Z,19.12
2018-08-17T06:15:37.578Z,17.40
2018-08-17T06:16:41.779Z,17.87
2018-08-17T06:17:45.989Z,41.85
2018-08-17T06:18:50.174Z,35.20
2018-08-17T06:19:54.716Z,23.18
2018-08-17T06:20:58.887Z,50.52
2018-08-17T06:22:03.066Z,24.95
2018-08-17T06:23:07.329Z,45.50
2018-08-17T06:24:11.626Z,26.60
2018-08-17T06:25:15.934Z,19.65
2018-08-17T06:26:20.086Z,21.85
2018-08-17T06:27:24.366Z,17.70
2018-08-17T06:28:28.823Z,15.78
2018-08-17T06:29:32.999Z,15.45
2018-08-17T06:30:37.203Z,17.15
2018-08-17T06:31:41.489Z,14.90
2018-08-17T06:32:45.907Z,13.13
2018-08-17T06:33:50.139Z,17.48
2018-08-17T06:34:54.315Z,18.15
2018-08-17T06:35:58.551Z,12.05
2018-08-17T06:37:02.817Z,11.00
2018-08-17T06:38:07.009Z,12.40
2018-08-17T06:39:12.020Z,12.47
2018-08-17T06:40:16.239Z,13.15
2018-08-17T06:41:20.442Z,11.43
2018-08-17T06:42:24.650Z,15.63
2018-08-17T06:43:29.057Z,10.45
2018-08-17T06:44:33.264Z,13.88
2018-08-17T06:45:37.468Z,16.30
2018-08-17T06:46:41.936Z,14.38
2018-08-17T06:47:46.110Z,13.72
2018-08-17T06:48:50.300Z,13.30
2018-08-17T06:49:54.802Z,14.33
2018-08-17T06:50:59.172Z,16.85
2018-08-17T06:52:03.215Z,14.90
2018-08-17T06:53:07.395Z,12.93
2018-08-17T06:54:11.559Z,11.43
2018-08-17T06:55:15.783Z,12.70
2018-08-17T06:56:20.032Z,12.95
2018-08-17T06:57:24.303Z,10.95
2018-08-17T06:58:28.458Z,11.35
2018-08-17T06:59:32.783Z,11.20
2018-08-17T07:00:37.058Z,10.75
2018-08-17T07:01:41.553Z,10.25
2018-08-17T07:02:46.654Z,11.48
2018-08-17T07:03:50.839Z,9.45
2018-08-17T07:04:55.017Z,12.30
2018-08-17T07:05:59.394Z,16.10
2018-08-17T07:07:03.666Z,11.90
2018-08-17T07:08:07.831Z,9.30
2018-08-17T07:09:12.118Z,10.63
2018-08-17T07:10:16.223Z,10.98
2018-08-17T07:11:20.441Z,11.60
2018-08-17T07:12:24.667Z,9.80
2018-08-17T07:13:28.827Z,9.28
2018-08-17T07:14:33.060Z,10.15
2018-08-17T07:15:37.442Z,13.13
2018-08-17T07:16:41.767Z,9.80
2018-08-17T07:17:45.981Z,11.80
2018-08-17T07:18:50.665Z,9.93
2018-08-17T07:19:54.900Z,8.73
2018-08-17T07:20:59.039Z,11.73
2018-08-17T07:22:03.719Z,11.55
2018-08-17T07:23:07.920Z,10.75
2018-08-17T07:24:12.132Z,10.45
2018-08-17T07:25:16.335Z,10.10
2018-08-17T07:26:20.499Z,12.63
2018-08-17T07:27:24.707Z,8.83
2018-08-17T07:28:29.053Z,7.92
2018-08-17T07:29:33.210Z,10.58
2018-08-17T07:30:37.404Z,9.73
2018-08-17T07:31:42.271Z,10.72
2018-08-17T07:32:46.455Z,8.58
2018-08-17T07:33:50.620Z,8.93
2018-08-17T07:34:54.779Z,8.78
2018-08-17T07:35:58.944Z,14.33
2018-08-17T07:37:03.103Z,8.45
2018-08-17T07:38:07.312Z,10.53
2018-08-17T07:39:11.498Z,16.48
2018-08-17T07:40:15.966Z,7.42
2018-08-17T07:41:20.295Z,7.15
2018-08-17T07:42:24.475Z,10.18
2018-08-17T07:43:28.674Z,9.10
2018-08-17T07:44:32.880Z,7.67
2018-08-17T07:45:37.479Z,15.72
2018-08-17T07:46:41.910Z,10.55
2018-08-17T07:47:46.157Z,9.83
2018-08-17T07:48:50.300Z,8.90
2018-08-17T07:49:54.437Z,9.63
2018-08-17T07:50:58.579Z,7.62
2018-08-17T07:52:02.771Z,10.15
2018-08-17T07:53:06.943Z,7.50
2018-08-17T07:54:11.122Z,13.30
2018-08-17T07:55:15.566Z,9.38
2018-08-17T07:56:19.740Z,11.25
2018-08-17T07:57:23.904Z,9.95
2018-08-17T07:58:28.106Z,11.20
2018-08-17T07:59:32.335Z,10.00
2018-08-17T08:00:36.816Z,11.57
2018-08-17T08:01:41.157Z,11.48
2018-08-17T08:02:45.462Z,17.62
2018-08-17T08:03:49.582Z,12.80
2018-08-17T08:04:54.134Z,14.73
2018-08-17T08:05:58.298Z,15.20
2018-08-17T08:07:02.471Z,15.05
2018-08-17T08:08:07.001Z,16.20
2018-08-17T08:09:11.576Z,10.88
2018-08-17T08:10:15.762Z,17.95
2018-08-17T08:11:19.940Z,13.83
2018-08-17T08:12:24.099Z,23.80
2018-08-17T08:13:28.388Z,14.13
2018-08-17T08:14:32.599Z,16.75
2018-08-17T08:15:36.835Z,16.93
2018-08-17T08:16:41.085Z,18.82
2018-08-17T08:17:45.428Z,14.68
2018-08-17T08:18:49.617Z,24.15
2018-08-17T08:20:05.079Z,25.52
2018-08-17T08:21:09.281Z,29.27
2018-08-17T08:22:13.548Z,33.75
2018-08-17T08:23:24.618Z,38.05
2018-08-17T08:24:28.860Z,35.98
2018-08-17T08:25:33.023Z,30.90
2018-08-17T08:26:37.235Z,29.25
2018-08-17T08:27:41.535Z,31.55
2018-08-17T08:28:45.764Z,28.00
2018-08-17T08:29:50.047Z,24.82
2018-08-17T08:30:54.732Z,22.22
2018-08-17T08:31:59.015Z,23.57
2018-08-17T08:33:03.343Z,20.37
2018-08-17T08:34:07.691Z,21.30
2018-08-17T08:35:11.848Z,24.05
2018-08-17T08:36:16.039Z,22.50
2018-08-17T08:37:20.695Z,20.45
2018-08-17T08:38:24.918Z,23.42
2018-08-17T08:39:29.318Z,21.70
2018-08-17T08:40:33.456Z,20.30
2018-08-17T08:41:37.694Z,15.15
2018-08-17T08:42:42.038Z,19.32
2018-08-17T08:43:46.212Z,16.20
2018-08-17T08:44:50.358Z,23.30
2018-08-17T08:45:54.615Z,18.62
2018-08-17T08:46:59.075Z,18.25
2018-08-17T08:48:03.866Z,16.70
2018-08-17T08:49:08.075Z,18.05
2018-08-17T08:50:12.487Z,19.23
2018-08-17T08:51:16.635Z,18.87
2018-08-17T08:52:20.916Z,15.65
2018-08-17T08:53:25.064Z,18.95
2018-08-17T08:54:29.228Z,16.37
2018-08-17T08:55:33.393Z,18.37
2018-08-17T08:56:37.634Z,19.75
2018-08-17T08:57:41.788Z,19.30
2018-08-17T08:58:45.979Z,13.40
2018-08-17T08:59:50.127Z,13.45
2018-08-17T09:00:54.304Z,15.40
2018-08-17T09:01:58.483Z,18.55
2018-08-17T09:03:02.619Z,10.38
2018-08-17T09:04:07.611Z,12.85
2018-08-17T09:05:11.787Z,12.85
2018-08-17T09:06:15.993Z,9.63
2018-08-17T09:07:20.176Z,11.55
2018-08-17T09:08:24.409Z,7.78
2018-08-17T09:09:28.601Z,9.93
2018-08-17T09:10:32.780Z,9.70
2018-08-17T09:11:37.036Z,11.90
2018-08-17T09:12:41.216Z,9.98
2018-08-17T09:13:45.498Z,6.85
2018-08-17T09:14:49.637Z,5.62
2018-08-17T09:15:53.973Z,6.92
2018-08-17T09:16:58.135Z,6.75
2018-08-17T09:18:02.352Z,7.22
2018-08-17T09:19:06.696Z,9.75
2018-08-17T09:20:13.063Z,6.78
2018-08-17T09:21:17.199Z,5.92
2018-08-17T09:22:21.352Z,5.30
2018-08-17T09:23:25.539Z,5.47
2018-08-17T09:24:29.697Z,6.12
2018-08-17T09:25:33.875Z,5.92
2018-08-17T09:26:38.015Z,5.17
2018-08-17T09:27:42.553Z,4.80
2018-08-17T09:28:46.699Z,6.50
2018-08-17T09:29:50.963Z,7.50
2018-08-17T09:30:55.131Z,7.55
2018-08-17T09:31:59.271Z,6.22
2018-08-17T09:33:03.406Z,6.65
2018-08-17T09:34:07.904Z,7.50
2018-08-17T09:35:13.186Z,8.83
2018-08-17T09:36:17.391Z,8.08
2018-08-17T09:37:21.792Z,7.72
2018-08-17T09:38:25.934Z,8.35
2018-08-17T09:39:30.162Z,9.23
2018-08-17T09:40:34.316Z,9.40
2018-08-17T09:41:38.551Z,7.10
2018-08-17T09:42:42.658Z,6.15
2018-08-17T09:43:46.778Z,7.58
2018-08-17T09:44:50.920Z,7.50
2018-08-17T09:45:55.064Z,7.80
2018-08-17T09:46:59.535Z,7.80
2018-08-17T09:48:03.700Z,8.13
2018-08-17T09:49:07.864Z,7.45
2018-08-17T09:50:13.684Z,7.12
2018-08-17T09:51:17.999Z,8.93
2018-08-17T09:52:22.187Z,9.55
2018-08-17T09:53:26.983Z,9.13
2018-08-17T09:54:31.163Z,8.25
2018-08-17T09:55:35.315Z,8.83
2018-08-17T09:56:39.504Z,8.08
2018-08-17T09:57:43.765Z,7.70
2018-08-17T09:58:47.852Z,8.25
2018-08-17T09:59:52.119Z,7.60
2018-08-17T10:01:01.579Z,10.88
2018-08-17T10:02:11.920Z,8.23
2018-08-17T10:03:21.320Z,8.53
2018-08-17T10:04:30.941Z,8.70
2018-08-17T10:05:39.638Z,11.18
2018-08-17T10:06:49.299Z,9.08
2018-08-17T10:07:58.818Z,9.38
2018-08-17T10:09:08.449Z,11.15
2018-08-17T10:10:18.438Z,10.85
2018-08-17T10:11:22.595Z,9.00
2018-08-17T10:12:26.911Z,8.30
2018-08-17T10:13:31.195Z,9.15
2018-08-17T10:14:35.499Z,6.97
2018-08-17T10:15:40.085Z,9.43
2018-08-17T10:16:44.319Z,10.53
2018-08-17T10:17:48.467Z,8.75
2018-08-17T10:18:52.675Z,10.00
2018-08-17T10:19:57.036Z,11.05
2018-08-17T10:21:01.452Z,8.65
2018-08-17T10:22:06.174Z,8.60
2018-08-17T10:23:15.488Z,11.68
2018-08-17T10:24:20.303Z,9.08
2018-08-17T10:25:25.726Z,9.45
2018-08-17T10:26:29.925Z,10.45
2018-08-17T10:27:34.105Z,8.33
2018-08-17T10:28:38.466Z,9.50
2018-08-17T10:29:42.625Z,10.05
2018-08-17T10:30:46.848Z,10.45
2018-08-17T10:31:51.453Z,7.60
2018-08-17T10:32:58.673Z,8.48
2018-08-17T10:34:03.027Z,16.30
2018-08-17T10:35:09.015Z,10.28
2018-08-17T10:36:13.220Z,11.70
2018-08-17T10:37:17.467Z,10.65
2018-08-17T10:38:21.732Z,7.62
2018-08-17T10:39:25.882Z,8.08
2018-08-17T10:40:30.092Z,8.05
2018-08-17T10:41:34.457Z,9.30
2018-08-17T10:42:38.619Z,10.78
2018-08-17T10:43:42.788Z,12.30
2018-08-17T10:44:46.969Z,7.28
2018-08-17T10:45:51.198Z,8.88
2018-08-17T10:46:55.380Z,9.15
2018-08-17T10:47:59.942Z,8.23
2018-08-17T10:49:04.168Z,8.65
2018-08-17T10:50:13.628Z,10.82
2018-08-17T10:51:17.759Z,9.55
2018-08-17T10:52:21.923Z,10.05
2018-08-17T10:53:28.774Z,10.28
2018-08-17T10:54:32.956Z,8.65
2018-08-17T10:55:42.920Z,11.38
2018-08-17T10:56:47.079Z,11.70
2018-08-17T10:57:51.454Z,10.28
2018-08-17T10:58:55.602Z,9.58
2018-08-17T10:59:59.923Z,9.78
2018-08-17T11:01:04.112Z,9.38
2018-08-17T11:02:08.286Z,8.90
2018-08-17T11:03:12.470Z,10.35
2018-08-17T11:04:16.624Z,15.58
2018-08-17T11:05:20.806Z,12.15
2018-08-17T11:06:24.993Z,10.72
2018-08-17T11:07:34.462Z,6.65
2018-08-17T11:08:38.983Z,6.92
2018-08-17T11:09:43.240Z,8.43
2018-08-17T11:10:47.418Z,5.78
2018-08-17T11:11:51.575Z,5.30
2018-08-17T11:12:55.787Z,7.67
2018-08-17T11:13:59.965Z,6.83
2018-08-17T11:15:04.839Z,11.45
2018-08-17T11:16:09.086Z,6.20
2018-08-17T11:17:13.220Z,8.03
2018-08-17T11:18:17.435Z,5.85
2018-08-17T11:19:21.799Z,7.95
2018-08-17T11:20:25.943Z,7.12
2018-08-17T11:21:30.231Z,7.65
2018-08-17T11:22:34.852Z,9.25
2018-08-17T11:23:39.176Z,6.90
2018-08-17T11:24:43.484Z,7.42
2018-08-17T11:25:47.649Z,7.00
2018-08-17T11:26:51.893Z,8.53
2018-08-17T11:27:56.061Z,7.90
2018-08-17T11:29:00.588Z,8.68
2018-08-17T11:30:07.640Z,13.53
2018-08-17T11:31:11.848Z,9.83
2018-08-17T11:32:15.991Z,9.03
2018-08-17T11:33:24.591Z,9.03
2018-08-17T11:34:28.831Z,7.85
2018-08-17T11:35:32.973Z,7.55
2018-08-17T11:36:37.198Z,8.40
2018-08-17T11:37:41.379Z,8.33
2018-08-17T11:38:45.527Z,9.80
2018-08-17T11:39:54.715Z,10.32
2018-08-17T11:40:58.868Z,9.80
2018-08-17T11:42:03.013Z,8.53
2018-08-17T11:43:07.222Z,8.53
2018-08-17T11:44:14.687Z,7.55
2018-08-17T11:45:20.391Z,9.58
2018-08-17T11:46:24.634Z,8.20
2018-08-17T11:47:28.860Z,12.93
2018-08-17T11:48:35.034Z,10.78
2018-08-17T11:49:39.218Z,8.03
2018-08-17T11:50:43.430Z,9.40
2018-08-17T11:51:47.618Z,9.95
2018-08-17T11:52:53.021Z,7.30
2018-08-17T11:53:57.304Z,10.88
2018-08-17T11:55:01.706Z,11.40
2018-08-17T11:56:05.928Z,6.70
2018-08-17T11:57:10.180Z,8.80
2018-08-17T11:58:14.363Z,7.33
2018-08-17T11:59:18.615Z,9.43
2018-08-17T12:00:22.798Z,10.90
2018-08-17T12:01:27.402Z,9.85
2018-08-17T12:02:31.571Z,7.87
2018-08-17T12:03:35.755Z,7.95
2018-08-17T12:04:41.064Z,9.10
2018-08-17T12:05:45.215Z,7.72
2018-08-17T12:06:49.369Z,9.20
2018-08-17T12:07:53.557Z,8.58
2018-08-17T12:08:57.769Z,11.10
2018-08-17T12:10:04.675Z,8.88
2018-08-17T12:11:08.847Z,12.82
2018-08-17T12:12:13.151Z,11.43
2018-08-17T12:13:17.664Z,8.25
2018-08-17T12:14:21.802Z,10.85
2018-08-17T12:15:25.972Z,8.05
2018-08-17T12:16:30.149Z,12.37
2018-08-17T12:17:34.639Z,12.88
2018-08-17T12:18:38.950Z,8.55
2018-08-17T12:19:43.095Z,8.53
2018-08-17T12:20:47.403Z,9.15
2018-08-17T12:21:51.547Z,8.28
2018-08-17T12:22:55.814Z,14.50
2018-08-17T12:23:59.984Z,8.85
2018-08-17T12:25:04.670Z,8.50
2018-08-17T12:26:08.724Z,8.90
2018-08-17T12:27:12.921Z,10.32
2018-08-17T12:28:17.091Z,12.47
2018-08-17T12:29:21.301Z,7.00
2018-08-17T12:30:25.581Z,9.07
2018-08-17T12:31:29.762Z,11.53
2018-08-17T12:32:33.912Z,8.80
2018-08-17T12:33:38.598Z,13.25
2018-08-17T12:34:42.888Z,15.40
2018-08-17T12:35:47.298Z,11.03
2018-08-17T12:36:51.608Z,9.90
2018-08-17T12:38:01.120Z,10.57
2018-08-17T12:39:09.095Z,8.25
2018-08-17T12:40:13.906Z,12.03
2018-08-17T12:41:18.199Z,10.63
2018-08-17T12:42:22.358Z,17.50
2018-08-17T12:43:28.263Z,9.08
2018-08-17T12:44:32.954Z,10.25
2018-08-17T12:45:37.140Z,9.50
2018-08-17T12:46:40.706Z,10.80
2018-08-17T12:47:44.615Z,12.85
2018-08-17T12:48:48.953Z,15.18
2018-08-17T12:49:53.202Z,12.47
2018-08-17T12:51:01.567Z,15.83
2018-08-17T12:52:05.780Z,13.83
2018-08-17T12:53:10.042Z,10.78
2018-08-17T12:54:19.609Z,12.03
2018-08-17T12:55:23.792Z,13.47
2018-08-17T12:56:27.990Z,7.83
2018-08-17T12:57:37.617Z,7.58
2018-08-17T12:58:41.963Z,9.50
2018-08-17T12:59:46.199Z,11.33
2018-08-17T13:00:50.396Z,10.75
2018-08-17T13:01:55.141Z,9.40
2018-08-17T13:02:59.323Z,9.87
2018-08-17T13:04:03.579Z,11.30
2018-08-17T13:05:07.812Z,13.63
2018-08-17T13:06:11.988Z,11.73
2018-08-17T13:07:16.449Z,10.30
2018-08-17T13:08:20.606Z,11.63
2018-08-17T13:09:24.788Z,10.77
2018-08-17T13:10:28.962Z,7.62
2018-08-17T13:11:33.193Z,8.90
2018-08-17T13:12:37.383Z,11.20
2018-08-17T13:13:41.547Z,8.40
2018-08-17T13:14:45.793Z,6.15
2018-08-17T13:15:55.151Z,10.53
2018-08-17T13:17:00.260Z,8.63
2018-08-17T13:18:15.138Z,10.05
2018-08-17T13:19:19.456Z,7.80
2018-08-17T13:20:23.845Z,10.45
2018-08-17T13:21:28.151Z,10.80
2018-08-17T13:22:32.375Z,10.90
2018-08-17T13:23:36.733Z,10.87
2018-08-17T13:24:40.918Z,12.30
2018-08-17T13:25:45.179Z,6.57
2018-08-17T13:26:49.486Z,12.30
2018-08-17T13:27:53.664Z,5.60
2018-08-17T13:28:58.101Z,9.70
2018-08-17T13:30:02.263Z,7.20
2018-08-17T13:31:06.428Z,7.42
2018-08-17T13:32:10.613Z,11.57
2018-08-17T13:33:14.758Z,7.77
2018-08-17T13:34:19.008Z,11.00
2018-08-17T13:35:23.230Z,9.60
2018-08-17T13:36:27.445Z,12.23
2018-08-17T13:37:31.805Z,7.80
2018-08-17T13:38:36.025Z,12.03
2018-08-17T13:39:40.426Z,8.20
2018-08-17T13:40:44.615Z,7.37
2018-08-17T13:41:48.869Z,7.63
2018-08-17T13:42:53.019Z,11.90
2018-08-17T13:43:57.191Z,9.78
2018-08-17T13:45:01.385Z,13.62
2018-08-17T13:46:05.639Z,8.58
2018-08-17T13:47:09.928Z,6.60
2018-08-17T13:48:14.139Z,10.72
2018-08-17T13:49:18.447Z,10.63
2018-08-17T13:50:22.920Z,7.85
2018-08-17T13:51:27.364Z,6.47
2018-08-17T13:52:31.663Z,9.13
2018-08-17T13:53:35.809Z,11.80
2018-08-17T13:54:40.245Z,6.65
2018-08-17T13:55:44.421Z,10.00
2018-08-17T13:56:48.561Z,7.45
2018-08-17T13:57:52.796Z,10.67